Time;durP1;ratioP1;P1;durP2;ratioP2;P2;SDS_P1;SDS_P2;PMS_P1;PMS_P2;Temp;Humidity;BMP_temperature;BMP_pressure;BME280_temperature;BME280_humidity;BME280_pressure;Samples;Min_cycle;Max_cycle;Signal;HPM_P1;HPM_P2
2022/12/09 00:20:36;;;;;;;300.50;151.65;;;;;;;2.18;79.04;93960.90;1813228;78;21494;-49
2022/12/09 00:23:03;;;;;;;281.17;146.87;;;;;;;2.26;79.30;93958.23;1804596;78;21282;-49
2022/12/09 00:25:30;;;;;;;278.60;141.65;;;;;;;2.31;79.10;93959.89;1785680;79;21103;-49
2022/12/09 00:27:57;;;;;;;290.35;144.68;;;;;;;2.33;78.92;93966.27;1794135;78;21510;-49
2022/12/09 00:30:24;;;;;;;321.00;157.22;;;;;;;2.31;78.87;93968.63;1792113;78;20962;-49
2022/12/09 00:32:51;;;;;;;304.40;157.70;;;;;;;2.32;78.93;93968.81;1781755;78;20990;-50
2022/12/09 00:35:18;;;;;;;303.83;157.82;;;;;;;2.36;79.35;93966.80;1781742;79;21239;-50
2022/12/09 00:37:45;;;;;;;277.00;146.90;;;;;;;2.49;79.53;93963.06;1788588;79;20962;-49
2022/12/09 00:40:13;;;;;;;336.57;169.72;;;;;;;2.59;79.24;93955.33;1802198;78;20951;-49
2022/12/09 00:42:39;;;;;;;364.00;180.78;;;;;;;2.63;79.11;93941.67;1790779;78;21056;-50
2022/12/09 00:45:09;;;;;;;346.93;174.93;;;;;;;2.65;79.08;93943.41;1801063;78;21551;-49
2022/12/09 00:47:36;;;;;;;309.23;155.15;;;;;;;2.75;79.40;93941.84;1790948;79;21247;-49
2022/12/09 00:50:05;;;;;;;260.95;136.77;;;;;;;2.85;79.08;93945.55;1782729;79;21053;-49
2022/12/09 00:52:32;;;;;;;204.80;111.65;;;;;;;2.88;78.37;93961.00;1791720;79;21029;-50
2022/12/09 00:54:59;;;;;;;211.75;112.90;;;;;;;2.82;78.12;93958.58;1792449;79;20997;-49
2022/12/09 00:57:25;;;;;;;212.05;111.47;;;;;;;2.81;77.85;93963.83;1781661;78;21135;-50
2022/12/09 00:59:52;;;;;;;193.30;107.27;;;;;;;2.81;77.97;93955.69;1802560;79;21104;-49
2022/12/09 01:02:19;;;;;;;183.90;103.07;;;;;;;2.83;78.02;93956.06;1795719;79;20981;-49
2022/12/09 01:04:51;;;;;;;179.45;96.67;;;;;;;2.88;78.02;93952.86;1798062;79;21407;-50
2022/12/09 01:07:17;;;;;;;172.95;93.47;;;;;;;2.96;77.82;93963.16;1813575;78;21458;-50
2022/12/09 01:09:45;;;;;;;167.72;90.57;;;;;;;3.07;77.74;93960.24;1808916;78;21422;-49
2022/12/09 01:12:12;;;;;;;172.95;93.40;;;;;;;3.12;76.99;93961.10;1812856;78;21265;-49
2022/12/09 01:14:39;;;;;;;173.57;90.87;;;;;;;3.18;77.01;93971.64;1809725;78;20993;-48
2022/12/09 01:17:05;;;;;;;174.53;93.97;;;;;;;3.24;76.58;93953.69;1795339;78;20970;-48
2022/12/09 01:19:33;;;;;;;174.93;95.22;;;;;;;3.25;76.34;93952.50;1798384;78;21019;-49
2022/12/09 01:22:00;;;;;;;180.50;99.55;;;;;;;3.26;76.39;93949.34;1782566;79;20981;-48
2022/12/09 01:24:26;;;;;;;177.10;99.35;;;;;;;3.30;76.06;93947.34;1796781;78;21235;-51
2022/12/09 01:26:53;;;;;;;231.43;127.15;;;;;;;3.25;76.01;93939.66;1791303;78;20974;-48
2022/12/09 01:29:20;;;;;;;235.57;133.32;;;;;;;3.13;75.90;93928.67;1785762;79;21030;-49
2022/12/09 01:31:49;;;;;;;262.38;140.68;;;;;;;2.96;76.28;93923.00;1802378;78;21440;-48
2022/12/09 01:34:16;;;;;;;287.40;151.57;;;;;;;2.87;76.74;93926.87;1795788;79;21443;-48
2022/12/09 01:36:42;;;;;;;302.82;161.40;;;;;;;2.80;76.91;93922.34;1796098;78;21975;-48
2022/12/09 01:39:09;;;;;;;300.25;161.00;;;;;;;2.77;77.43;93921.05;1804288;78;21439;-49
2022/12/09 01:41:36;;;;;;;309.73;163.10;;;;;;;2.73;77.36;93920.36;1787450;79;21427;-50
2022/12/09 01:44:23;;;;;;;300.10;163.92;;;;;;;2.63;77.62;93919.95;1799626;79;21034;-49
2022/12/09 01:46:55;;;;;;;284.90;150.30;;;;;;;2.63;77.79;93917.23;1758984;79;21028;-50
2022/12/09 01:49:38;;;;;;;262.08;139.75;;;;;;;2.63;78.17;93920.73;1767083;80;21183;-49
2022/12/09 01:52:18;;;;;;;294.50;152.05;;;;;;;2.67;77.88;93917.96;1758562;80;21028;-49
2022/12/09 01:54:45;;;;;;;250.60;131.20;;;;;;;2.64;77.94;93920.13;1765391;79;21078;-50
2022/12/09 01:57:14;;;;;;;255.67;138.22;;;;;;;2.67;77.86;93915.25;1752954;81;20974;-50
2022/12/09 01:59:41;;;;;;;284.20;150.45;;;;;;;2.66;77.81;93915.08;1760634;80;21516;-49
2022/12/09 02:02:08;;;;;;;282.83;153.47;;;;;;;2.63;77.77;93906.38;1757045;80;21219;-50
2022/12/09 02:04:39;;;;;;;275.65;152.50;;;;;;;2.63;77.92;93900.38;1766634;80;20966;-49
2022/12/09 02:07:09;;;;;;;276.32;147.35;;;;;;;2.61;77.80;93903.32;1756565;80;20985;-49
2022/12/09 02:09:39;;;;;;;285.10;149.82;;;;;;;2.56;77.70;93907.88;1760212;80;20986;-49
2022/12/09 02:12:14;;;;;;;283.23;151.57;;;;;;;2.50;77.86;93906.23;1772486;80;21034;-49
2022/12/09 02:14:53;;;;;;;334.55;170.12;;;;;;;2.53;78.34;93899.22;1773971;80;21316;-50
2022/12/09 02:17:31;;;;;;;310.02;161.90;;;;;;;2.60;78.16;93901.79;1672780;85;21097;-49
2022/12/09 02:20:05;;;;;;;305.75;152.10;;;;;;;2.71;78.27;93910.52;1669318;85;21148;-47
2022/12/09 02:22:37;;;;;;;260.43;144.87;;;;;;;2.78;77.53;93909.00;1671988;84;21048;-49
2022/12/09 02:25:37;;;;;;;298.52;156.20;;;;;;;2.75;77.05;93897.63;1641012;84;20990;-49
2022/12/09 02:28:26;;;;;;;258.02;142.07;;;;;;;2.63;77.02;93896.87;1638788;86;21493;-49
2022/12/09 02:31:39;;;;;;;260.23;144.65;;;;;;;2.59;77.25;93894.25;1630807;86;21096;-47
2022/12/09 02:34:18;;;;;;;235.75;126.58;;;;;;;2.60;77.27;93893.64;1638468;85;21057;-48
2022/12/09 02:37:23;;;;;;;224.50;126.62;;;;;;;2.62;77.16;93899.42;1607867;86;21117;-48
2022/12/09 02:40:09;;;;;;;207.25;117.37;;;;;;;2.68;77.29;93889.63;1599100;88;21680;-49
2022/12/09 02:42:38;;;;;;;182.45;100.33;;;;;;;2.74;77.07;93890.66;1601343;87;21922;-48
2022/12/09 02:45:07;;;;;;;152.72;86.47;;;;;;;2.77;76.77;93887.11;1602545;88;21656;-48
2022/12/09 02:47:38;;;;;;;130.40;72.17;;;;;;;2.78;76.65;93888.06;1572394;89;21014;-48
2022/12/09 02:50:08;;;;;;;124.20;66.47;;;;;;;2.80;76.97;93891.70;1601615;88;21029;-49
2022/12/09 02:52:35;;;;;;;125.42;70.25;;;;;;;2.86;77.01;93899.55;1620899;87;21070;-49
2022/12/09 02:55:04;;;;;;;126.70;70.30;;;;;;;2.85;76.62;93898.02;1592044;87;21286;-49
2022/12/09 02:57:31;;;;;;;134.85;75.52;;;;;;;2.79;76.71;93890.95;1604898;87;22306;-50
2022/12/09 02:59:58;;;;;;;125.47;72.47;;;;;;;2.74;76.71;93894.73;1611394;87;21183;-50
2022/12/09 06:03:33;;;;;;;142.95;70.62;;;;;;;0.60;85.71;93928.45;1827037;77;26127;-47
2022/12/09 06:06:09;;;;;;;149.45;75.87;;;;;;;0.56;85.67;93927.73;1813341;78;21056;-48
2022/12/09 06:08:36;;;;;;;171.40;81.20;;;;;;;0.55;85.50;93928.91;1778987;78;21120;-47
2022/12/09 06:11:03;;;;;;;159.00;81.05;;;;;;;0.60;85.74;93927.10;1760366;80;21081;-48
2022/12/09 06:13:31;;;;;;;144.37;74.97;;;;;;;0.61;85.44;93925.93;1764728;80;21499;-48
2022/12/09 06:16:03;;;;;;;133.82;71.80;;;;;;;0.62;85.57;93930.17;1765464;80;21054;-48
2022/12/09 06:18:30;;;;;;;147.95;79.32;;;;;;;0.64;85.62;93935.97;1761039;80;21168;-46
2022/12/09 06:20:57;;;;;;;197.50;101.25;;;;;;;0.70;85.68;93936.27;1762130;80;21265;-48
2022/12/09 06:23:25;;;;;;;140.60;76.72;;;;;;;0.76;85.63;93938.73;1766956;79;20993;-47
2022/12/09 06:25:52;;;;;;;163.97;88.52;;;;;;;0.77;85.23;93946.44;1797514;79;21457;-47
2022/12/09 06:28:18;;;;;;;180.25;106.50;;;;;;;0.72;85.14;93955.00;1789332;77;20980;-48
2022/12/09 06:30:45;;;;;;;202.18;113.00;;;;;;;0.70;85.14;93952.51;1797147;78;21089;-48
2022/12/09 06:33:12;;;;;;;209.72;115.25;;;;;;;0.73;85.71;93961.95;1769426;78;22011;-48
2022/12/09 06:35:38;;;;;;;242.07;133.67;;;;;;;0.78;85.41;93937.74;1779978;78;21483;-49
2022/12/09 06:38:05;;;;;;;223.38;127.92;;;;;;;0.79;85.52;93946.80;1776374;79;21625;-48
2022/12/09 06:40:32;;;;;;;199.95;116.50;;;;;;;0.82;85.26;93967.66;1772112;79;21150;-48
2022/12/09 06:42:59;;;;;;;194.47;116.62;;;;;;;0.80;85.12;93946.97;1772653;78;21069;-48
2022/12/09 06:45:25;;;;;;;215.03;121.92;;;;;;;0.77;85.01;93961.31;1765783;79;21200;-47
2022/12/09 06:47:52;;;;;;;244.00;136.05;;;;;;;0.82;85.29;93977.14;1771888;80;21117;-48
2022/12/09 06:50:20;;;;;;;242.77;137.50;;;;;;;0.89;85.20;93968.92;1782821;78;21576;-48
2022/12/09 06:52:48;;;;;;;226.90;128.55;;;;;;;0.96;85.00;93956.64;1785342;80;21014;-48
2022/12/09 06:55:27;;;;;;;219.03;131.27;;;;;;;1.03;85.11;93957.93;1787147;78;21179;-49
2022/12/09 06:58:07;;;;;;;200.93;120.55;;;;;;;1.09;84.89;93959.01;1728812;80;21296;-47
2022/12/09 07:00:39;;;;;;;196.10;114.15;;;;;;;1.15;85.17;93954.66;1738539;79;21112;-48
2022/12/09 07:03:15;;;;;;;172.90;100.65;;;;;;;1.24;84.86;93946.83;1715828;80;21072;-48
2022/12/09 07:05:52;;;;;;;170.72;104.60;;;;;;;1.35;84.90;93942.61;1740042;80;21557;-48
2022/12/09 07:08:32;;;;;;;323.52;159.30;;;;;;;1.46;84.51;93946.70;1719351;80;21095;-49
2022/12/09 07:11:16;;;;;;;201.47;104.32;;;;;;;1.54;84.35;93955.50;1727795;80;21348;-48
2022/12/09 07:13:57;;;;;;;205.32;112.30;;;;;;;1.55;84.11;93940.20;1733487;79;21215;-48
2022/12/09 07:16:33;;;;;;;204.75;121.60;;;;;;;1.58;84.19;93944.80;1721661;80;21105;-49
2022/12/09 07:19:04;;;;;;;187.85;112.00;;;;;;;1.60;83.85;93936.25;1692686;81;21132;-49
2022/12/09 07:21:37;;;;;;;151.20;94.77;;;;;;;1.64;84.01;93926.89;1706151;79;21108;-49
2022/12/09 07:24:09;;;;;;;138.37;84.25;;;;;;;1.72;84.11;93925.59;1705342;80;21216;-48
2022/12/09 07:26:42;;;;;;;141.77;84.32;;;;;;;1.82;83.85;93931.45;1714993;79;22558;-49
2022/12/09 07:29:14;;;;;;;144.05;88.30;;;;;;;1.87;83.67;93942.61;1718623;80;21518;-49
2022/12/09 07:31:44;;;;;;;142.95;87.85;;;;;;;1.94;83.45;93932.24;1738303;80;21235;-50
2022/12/09 07:34:12;;;;;;;145.75;88.45;;;;;;;2.01;83.28;93936.19;1722486;81;21105;-49
2022/12/09 07:36:39;;;;;;;146.07;92.67;;;;;;;2.09;83.52;93934.87;1716467;81;21261;-49
2022/12/09 07:39:11;;;;;;;169.95;106.25;;;;;;;2.31;83.86;93924.61;1724832;81;21561;-48
2022/12/09 07:41:38;;;;;;;178.60;109.52;;;;;;;2.51;83.15;93921.95;1721910;80;21061;-49
2022/12/09 07:44:05;;;;;;;163.47;97.25;;;;;;;2.57;82.37;93928.41;1678712;82;21122;-48
2022/12/09 07:46:32;;;;;;;167.65;100.92;;;;;;;2.58;81.82;93921.23;1705113;81;21545;-49
2022/12/09 07:49:01;;;;;;;181.15;105.12;;;;;;;2.61;81.62;93929.11;1770005;78;21423;-50
2022/12/09 07:51:28;;;;;;;164.95;101.95;;;;;;;2.65;81.43;93939.34;1763763;78;21056;-50
2022/12/09 07:53:56;;;;;;;174.25;101.50;;;;;;;2.66;81.27;93928.65;1772493;78;21552;-50
2022/12/09 07:56:23;;;;;;;173.95;107.87;;;;;;;2.75;81.44;93920.70;1788365;79;21072;-52
2022/12/09 07:58:52;;;;;;;167.68;104.12;;;;;;;2.85;81.45;93928.64;1793844;78;21088;-52
2022/12/09 08:01:26;;;;;;;187.45;113.03;;;;;;;2.97;81.07;93919.09;1769269;78;21222;-52
2022/12/09 08:03:53;;;;;;;187.20;113.25;;;;;;;3.02;81.21;93919.98;1706821;81;21041;-49
2022/12/09 08:06:23;;;;;;;192.03;118.25;;;;;;;3.15;80.82;93931.73;1718783;81;20980;-52
2022/12/09 08:08:50;;;;;;;227.40;135.45;;;;;;;3.20;80.68;93925.83;1674924;82;21100;-50
2022/12/09 08:11:21;;;;;;;245.52;139.25;;;;;;;3.31;80.63;93924.41;1714924;81;21117;-48
2022/12/09 08:13:48;;;;;;;233.68;130.65;;;;;;;3.49;80.60;93918.00;1692878;83;21286;-48
2022/12/09 08:16:17;;;;;;;169.35;103.10;;;;;;;3.73;80.48;93918.78;1689711;83;21182;-50
2022/12/09 08:18:44;;;;;;;144.25;87.15;;;;;;;4.00;80.08;93918.55;1685947;82;22261;-48
2022/12/09 08:21:15;;;;;;;235.35;130.22;;;;;;;4.22;79.70;93908.08;1689651;83;21127;-48
2022/12/09 08:23:42;;;;;;;142.82;87.75;;;;;;;4.45;78.84;93913.93;1685569;83;21059;-48
2022/12/09 08:26:12;;;;;;;113.30;67.55;;;;;;;4.53;78.02;93919.34;1687695;83;21240;-49
2022/12/09 08:28:39;;;;;;;110.97;69.32;;;;;;;4.56;77.14;93910.31;1695599;83;21699;-51
2022/12/09 08:31:14;;;;;;;124.85;75.00;;;;;;;4.45;76.31;93905.77;1687716;83;21514;-50
2022/12/09 08:33:41;;;;;;;121.60;74.75;;;;;;;4.29;76.39;93917.45;1705692;83;21222;-49
2022/12/09 08:36:16;;;;;;;113.80;67.90;;;;;;;4.25;76.46;93908.58;1683730;83;21058;-48
2022/12/09 08:38:44;;;;;;;94.05;60.00;;;;;;;4.26;76.71;93913.45;1684717;84;21162;-50
2022/12/09 08:41:21;;;;;;;99.55;61.30;;;;;;;4.36;76.56;93918.63;1693959;83;21076;-49
2022/12/09 08:43:49;;;;;;;107.17;64.62;;;;;;;4.34;76.47;93901.95;1631999;85;21137;-50
2022/12/09 08:46:16;;;;;;;171.77;110.37;;;;;;;4.37;76.65;93908.48;1630163;86;21094;-49
2022/12/09 08:48:43;;;;;;;185.03;119.40;;;;;;;4.39;76.44;93886.45;1596463;86;21077;-51
2022/12/09 08:51:10;;;;;;;186.45;122.55;;;;;;;4.41;76.55;93891.48;1639979;86;21428;-47
2022/12/09 08:53:38;;;;;;;178.12;115.20;;;;;;;4.47;76.36;93889.17;1635224;86;22386;-51
2022/12/09 08:56:11;;;;;;;162.30;105.27;;;;;;;4.42;75.81;93873.34;1610990;86;21056;-51
2022/12/09 08:58:39;;;;;;;151.70;94.13;;;;;;;4.39;75.87;93869.37;1558318;90;21232;-48
2022/12/09 09:01:06;;;;;;;153.25;95.97;;;;;;;4.30;75.71;93856.37;1565728;89;21818;-51
2022/12/09 09:03:33;;;;;;;165.18;97.57;;;;;;;4.20;75.90;93871.00;1580653;89;21194;-49
2022/12/09 09:06:04;;;;;;;146.07;91.82;;;;;;;4.11;75.96;93864.63;1558969;89;21123;-49
2022/12/09 09:08:31;;;;;;;151.35;95.40;;;;;;;4.11;76.25;93861.91;1578048;89;21154;-49
2022/12/09 09:10:58;;;;;;;134.95;87.00;;;;;;;4.12;76.31;93866.95;1581791;89;21160;-50
2022/12/09 09:13:25;;;;;;;138.43;89.17;;;;;;;4.16;76.16;93866.25;1558354;90;21429;-50
2022/12/09 09:15:52;;;;;;;113.88;73.35;;;;;;;4.21;76.58;93860.28;1559046;90;21953;-50
2022/12/09 09:18:19;;;;;;;115.42;70.32;;;;;;;4.39;76.45;93858.48;1583094;88;21188;-49
2022/12/09 09:20:47;;;;;;;109.45;72.20;;;;;;;4.59;76.38;93843.51;1584653;88;21237;-52
2022/12/09 09:23:14;;;;;;;106.35;73.72;;;;;;;4.87;76.00;93849.55;1590326;88;21210;-49
2022/12/09 09:25:41;;;;;;;140.95;88.17;;;;;;;5.20;75.60;93858.33;1551493;90;21101;-50
2022/12/09 09:28:09;;;;;;;135.75;86.10;;;;;;;5.43;74.23;93845.16;1574513;90;21295;-50
2022/12/09 09:30:37;;;;;;;107.50;69.40;;;;;;;5.60;73.58;93855.52;1574640;90;21097;-56
2022/12/09 09:33:04;;;;;;;262.82;140.57;;;;;;;5.74;73.14;93844.75;1595360;89;21094;-48
2022/12/09 09:35:31;;;;;;;189.45;104.05;;;;;;;5.91;72.20;93836.63;1548212;92;21159;-49
2022/12/09 09:37:58;;;;;;;214.75;121.28;;;;;;;6.11;72.36;93834.41;1554095;90;21134;-50
2022/12/09 09:40:26;;;;;;;150.47;85.50;;;;;;;6.50;71.41;93818.86;1600796;84;21313;-49
2022/12/09 09:42:53;;;;;;;119.62;70.15;;;;;;;6.93;70.80;93819.63;1636269;85;21156;-51
2022/12/09 09:45:21;;;;;;;120.33;72.30;;;;;;;7.16;69.24;93816.42;1633519;86;21170;-50
2022/12/09 09:48:01;;;;;;;109.87;64.53;;;;;;;7.15;68.77;93798.50;1689823;82;21102;-50
2022/12/09 09:50:44;;;;;;;102.10;63.05;;;;;;;7.36;69.22;93806.63;1696077;81;21057;-50
2022/12/09 09:53:24;;;;;;;94.17;57.25;;;;;;;7.93;68.36;93793.64;1692100;83;21472;-52
2022/12/09 09:56:00;;;;;;;73.30;47.95;;;;;;;8.35;67.21;93798.75;1753631;79;21627;-51
2022/12/09 09:58:51;;;;;;;91.35;58.90;;;;;;;8.55;65.18;93785.36;1781352;79;21037;-50
2022/12/09 10:01:18;;;;;;;115.55;71.45;;;;;;;8.49;64.57;93781.72;1768312;79;21561;-56
2022/12/09 10:03:59;;;;;;;115.35;69.10;;;;;;;8.39;64.02;93770.58;1784417;79;21084;-51
2022/12/09 10:06:50;;;;;;;86.50;56.08;;;;;;;8.34;63.90;93771.80;1790306;79;21164;-49
2022/12/09 10:09:53;;;;;;;110.97;66.57;;;;;;;8.17;63.38;93785.00;1787809;78;21060;-52
2022/12/09 10:12:32;;;;;;;115.22;72.45;;;;;;;7.78;64.68;93787.20;1719684;80;21097;-51
2022/12/09 10:15:15;;;;;;;118.82;74.25;;;;;;;7.78;64.68;93787.20;1715945;82;21097;-52
2022/12/09 10:17:52;;;;;;;111.42;68.92;;;;;;;7.72;64.69;93773.19;1713730;81;21099;-50
2022/12/09 10:20:29;;;;;;;148.45;88.10;;;;;;;7.56;65.06;93776.92;1729062;81;21221;-52
2022/12/09 10:23:05;;;;;;;131.32;79.47;;;;;;;7.40;65.24;93769.58;1779385;78;21249;-51
2022/12/09 10:25:36;;;;;;;103.85;65.85;;;;;;;7.12;65.80;93763.22;1769197;79;21168;-49
2022/12/09 10:28:22;;;;;;;101.60;62.05;;;;;;;6.96;66.42;93778.32;1765001;79;21036;-54
2022/12/09 10:30:50;;;;;;;106.03;66.55;;;;;;;6.85;66.88;93762.31;1778233;79;21113;-49
2022/12/09 10:33:19;;;;;;;109.92;68.70;;;;;;;6.83;67.42;93760.63;1734998;80;21131;-50
2022/12/09 10:35:46;;;;;;;103.32;65.70;;;;;;;6.89;67.52;93756.72;1777270;79;21025;-51
2022/12/09 10:38:16;;;;;;;112.17;67.32;;;;;;;6.95;67.35;93749.45;1748153;80;21164;-50
2022/12/09 10:40:54;;;;;;;112.75;66.97;;;;;;;7.12;67.53;93750.92;1770154;79;21069;-48
2022/12/09 10:43:42;;;;;;;103.40;63.52;;;;;;;7.74;67.46;93742.77;1669914;84;21117;-49
2022/12/09 10:46:22;;;;;;;79.42;50.45;;;;;;;8.67;65.92;93733.73;1687821;83;21520;-52
2022/12/09 10:48:54;;;;;;;114.37;67.25;;;;;;;9.75;63.52;93740.21;1679197;83;21532;-53
2022/12/09 10:51:25;;;;;;;63.38;38.15;;;;;;;10.82;61.01;93747.71;1699984;83;21620;-48
2022/12/09 10:53:59;;;;;;;17.80;14.87;;;;;;;11.33;57.01;93744.63;1698945;82;21180;-53
2022/12/09 10:56:30;;;;;;;11.78;10.15;;;;;;;11.51;52.41;93739.66;1682804;83;21037;-51
2022/12/09 10:59:22;;;;;;;6.97;6.15;;;;;;;11.63;53.04;93744.14;1693600;83;22028;-49
2022/12/09 11:02:01;;;;;;;11.65;10.50;;;;;;;11.64;51.62;93734.64;1664122;83;21065;-49
2022/12/09 11:04:32;;;;;;;16.52;10.72;;;;;;;11.51;51.62;93744.42;1611973;86;21233;-50
2022/12/09 11:07:08;;;;;;;17.62;12.47;;;;;;;11.44;50.95;93742.80;1605690;87;21255;-49
2022/12/09 11:09:45;;;;;;;12.47;10.32;;;;;;;11.41;51.57;93746.52;1595443;87;21096;-50
2022/12/09 11:12:30;;;;;;;19.80;16.60;;;;;;;11.41;51.57;93745.14;1566449;89;21252;-51
2022/12/09 11:15:04;;;;;;;21.07;19.00;;;;;;;11.49;51.63;93736.63;1551920;89;21112;-51
2022/12/09 11:17:34;;;;;;;10.15;9.15;;;;;;;11.86;51.62;93733.58;1581358;88;21256;-49
2022/12/09 11:20:15;;;;;;;7.12;6.42;;;;;;;12.49;49.95;93734.03;1573101;85;21178;-49
2022/12/09 11:22:43;;;;;;;6.40;5.67;;;;;;;12.97;48.79;93728.98;1649090;84;21100;-50
2022/12/09 11:25:20;;;;;;;8.08;5.53;;;;;;;13.17;48.45;93728.94;1629274;84;21360;-51
2022/12/09 11:28:01;;;;;;;4.53;4.12;;;;;;;13.26;48.50;93723.86;1659486;84;21815;-52
2022/12/09 11:30:32;;;;;;;9.50;4.40;;;;;;;13.25;47.88;93721.71;1654784;84;21152;-50
2022/12/09 11:33:07;;;;;;;13.00;9.08;;;;;;;13.15;47.89;93723.75;1645732;84;21153;-50
2022/12/09 11:35:45;;;;;;;24.12;8.13;;;;;;;13.19;48.94;93716.00;1636809;84;21251;-50
2022/12/09 11:38:35;;;;;;;8.93;7.22;;;;;;;13.48;48.23;93719.91;1649425;85;21971;-48
2022/12/09 11:41:14;;;;;;;7.90;7.17;;;;;;;14.08;47.34;93718.19;1628449;86;21084;-49
2022/12/09 11:43:50;;;;;;;17.25;6.75;;;;;;;14.57;46.46;93723.39;1644922;84;21616;-50
2022/12/09 11:46:24;;;;;;;8.28;4.78;;;;;;;14.94;45.01;93721.86;1657715;85;21063;-49
2022/12/09 11:49:16;;;;;;;17.35;5.83;;;;;;;15.27;44.39;93729.64;1657488;85;21251;-49
2022/12/09 11:51:47;;;;;;;22.62;6.70;;;;;;;15.28;43.72;93720.69;1575849;89;21263;-53
2022/12/09 11:54:24;;;;;;;33.75;8.08;;;;;;;14.80;44.22;93728.39;1555655;89;21719;-51
2022/12/09 11:56:51;;;;;;;23.15;10.93;;;;;;;14.40;44.93;93727.96;1570233;89;21130;-60
2022/12/09 11:59:22;;;;;;;74.82;12.88;;;;;;;14.19;45.35;93739.05;1578770;88;21159;-53
2022/12/09 12:02:19;;;;;;;16.73;7.42;;;;;;;14.05;45.71;93728.86;1618396;85;21155;-51
2022/12/09 12:05:21;;;;;;;14.20;6.58;;;;;;;13.90;45.82;93736.55;1656668;85;21603;-52
2022/12/09 12:08:00;;;;;;;20.82;9.58;;;;;;;13.74;46.43;93735.19;1651993;84;21599;-48
2022/12/09 12:10:32;;;;;;;13.15;6.47;;;;;;;13.70;46.70;93739.42;1654661;84;21656;-48
2022/12/09 12:13:22;;;;;;;15.13;12.15;;;;;;;13.74;46.43;93737.19;1599584;88;21656;-49
2022/12/09 12:16:20;;;;;;;58.35;29.02;;;;;;;13.71;46.35;93729.88;1599991;86;21209;-52
2022/12/09 12:19:04;;;;;;;26.77;15.93;;;;;;;13.59;46.87;93731.80;1612548;87;21252;-51
2022/12/09 12:21:55;;;;;;;12.07;8.58;;;;;;;13.22;48.19;93730.21;1586967;87;21813;-52
2022/12/09 12:24:50;;;;;;;7.15;5.70;;;;;;;12.83;49.12;93729.03;1617302;86;21108;-54
2022/12/09 12:27:45;;;;;;;7.15;4.60;;;;;;;12.74;49.61;93723.05;1631883;86;21185;-51
2022/12/09 12:30:20;;;;;;;20.72;5.65;;;;;;;12.64;49.78;93716.78;1696548;82;21624;-53
2022/12/09 12:33:33;;;;;;;11.50;7.60;;;;;;;12.48;50.56;93720.10;1678764;83;21439;-53
2022/12/09 12:36:30;;;;;;;17.15;4.60;;;;;;;12.36;51.31;93725.37;1706680;82;21026;-52
2022/12/09 12:39:19;;;;;;;7.28;4.55;;;;;;;12.13;52.22;93728.31;1706728;81;21088;-56
2022/12/09 12:42:25;;;;;;;5.20;4.12;;;;;;;11.86;53.14;93719.80;1699737;82;21590;-53
2022/12/09 12:48:03;;;;;;;7.37;4.75;;;;;;;11.44;54.60;93722.16;1654123;84;22690;-52
2022/12/09 12:50:58;;;;;;;13.60;8.43;;;;;;;11.25;55.21;93713.95;1677655;83;21187;-52
2022/12/09 12:53:48;;;;;;;8.88;6.17;;;;;;;11.17;55.73;93727.20;1687891;83;21097;-55
2022/12/09 12:56:36;;;;;;;11.48;6.30;;;;;;;11.10;56.30;93721.46;1700459;82;21699;-55
2022/12/09 12:59:56;;;;;;;14.00;8.35;;;;;;;10.98;56.53;93717.62;1649318;85;21119;-53
2022/12/09 13:02:32;;;;;;;17.17;11.35;;;;;;;10.98;56.95;93715.61;1657749;85;21167;-53
2022/12/09 13:05:06;;;;;;;21.62;14.28;;;;;;;11.02;57.45;93709.93;1649606;84;21144;-50
2022/12/09 13:07:40;;;;;;;11.95;6.60;;;;;;;10.99;57.52;93706.13;1582573;89;21122;-50
2022/12/09 13:10:21;;;;;;;9.95;5.87;;;;;;;10.88;57.48;93710.08;1589356;88;21159;-56
2022/12/09 13:12:53;;;;;;;4.62;4.10;;;;;;;10.84;57.72;93701.23;1612875;86;21105;-51
2022/12/09 13:15:33;;;;;;;6.78;5.33;;;;;;;10.76;57.62;93702.84;1643838;86;21315;-53
2022/12/09 13:18:15;;;;;;;6.87;5.20;;;;;;;10.68;58.04;93702.95;1629652;85;21053;-51
2022/12/09 13:21:03;;;;;;;6.63;5.27;;;;;;;10.57;58.33;93697.97;1582424;89;21126;-54
2022/12/09 13:24:18;;;;;;;7.10;5.62;;;;;;;10.44;58.47;93699.47;1591258;88;21645;-53
2022/12/09 13:27:02;;;;;;;9.13;6.83;;;;;;;10.32;59.01;93697.76;1585677;87;21228;-52
2022/12/09 13:29:46;;;;;;;21.17;14.65;;;;;;;10.32;59.77;93696.38;1590665;87;21791;-53
2022/12/09 13:32:48;;;;;;;18.02;11.08;;;;;;;10.32;60.57;93693.00;1541683;90;21140;-55
2022/12/09 13:35:33;;;;;;;21.45;14.47;;;;;;;10.22;60.74;93698.45;1534476;91;21128;-50
2022/12/09 13:38:00;;;;;;;11.50;8.38;;;;;;;10.17;61.30;93701.08;1544015;90;21041;-52
2022/12/09 13:40:37;;;;;;;12.63;9.68;;;;;;;10.10;61.06;93694.55;1556965;91;21136;-51
2022/12/09 13:43:22;;;;;;;16.52;14.63;;;;;;;10.12;61.25;93693.45;1547384;91;21255;-52
2022/12/09 13:45:58;;;;;;;20.05;14.47;;;;;;;10.14;61.17;93697.27;1442782;97;21212;-52
2022/12/09 13:48:38;;;;;;;15.00;10.38;;;;;;;10.13;61.54;93699.88;1397336;101;21232;-52
2022/12/09 13:51:06;;;;;;;17.50;10.98;;;;;;;10.11;61.75;93696.06;1392437;101;21209;-51
2022/12/09 13:53:37;;;;;;;25.97;16.50;;;;;;;10.08;61.86;93691.52;1390886;102;21188;-50
2022/12/09 13:56:19;;;;;;;34.95;21.12;;;;;;;10.06;62.05;93692.00;1408565;101;21225;-51
2022/12/09 13:59:38;;;;;;;39.75;21.15;;;;;;;10.03;62.36;93694.31;1422456;99;21164;-52
2022/12/09 14:02:19;;;;;;;44.58;26.80;;;;;;;9.97;62.58;93692.64;1434824;99;21360;-50
2022/12/09 14:05:07;;;;;;;35.00;21.50;;;;;;;9.84;63.09;93700.35;1417098;97;21194;-57
2022/12/09 14:07:41;;;;;;;38.02;24.47;;;;;;;9.72;63.51;93693.09;1415552;98;21426;-52
2022/12/09 14:10:46;;;;;;;39.23;25.65;;;;;;;9.59;63.94;93697.44;1468178;95;21201;-51
2022/12/09 14:13:34;;;;;;;33.25;22.55;;;;;;;9.49;64.43;93693.23;1449699;96;21360;-51
2022/12/09 14:16:32;;;;;;;35.23;23.50;;;;;;;9.33;65.01;93686.75;1480094;96;21101;-49
2022/12/09 14:19:25;;;;;;;37.25;22.90;;;;;;;9.16;65.47;93686.97;1455447;96;21091;-50
2022/12/09 14:22:21;;;;;;;45.80;26.67;;;;;;;8.99;66.12;93691.30;1450322;97;21690;-51
2022/12/09 14:24:54;;;;;;;30.35;19.07;;;;;;;8.84;66.84;93695.13;1444933;97;22350;-52
2022/12/09 14:27:26;;;;;;;34.73;21.20;;;;;;;8.74;67.29;93690.91;1469873;95;21162;-50
2022/12/09 14:30:00;;;;;;;;;;;;;;;8.66;67.62;93699.28;1463358;96;21630;-49
2022/12/09 14:32:51;;;;;;;37.53;25.30;;;;;;;8.59;67.97;93697.50;1448273;95;20204;-50
2022/12/09 14:35:43;;;;;;;43.23;26.57;;;;;;;8.50;68.23;93694.75;1484172;95;21342;-50
2022/12/09 14:38:53;;;;;;;55.35;31.75;;;;;;;8.47;68.74;93697.80;1479949;95;21295;-50
2022/12/09 14:41:54;;;;;;;65.87;40.23;;;;;;;8.47;69.04;93701.91;1501678;91;21176;-50
2022/12/09 14:44:41;;;;;;;79.85;42.10;;;;;;;8.48;69.27;93691.72;1525906;91;22738;-51
2022/12/09 14:47:30;;;;;;;72.40;38.78;;;;;;;8.50;69.31;93694.75;1549058;90;21104;-50
2022/12/09 14:50:08;;;;;;;73.12;40.65;;;;;;;8.50;69.30;93691.42;1507580;92;21164;-52
2022/12/09 14:52:34;;;;;;;72.10;40.30;;;;;;;8.50;69.48;93699.64;1524892;91;21923;-50
2022/12/09 14:55:05;;;;;;;71.15;41.23;;;;;;;8.50;69.48;93703.75;1515531;93;21175;-48
2022/12/09 14:57:40;;;;;;;68.50;41.35;;;;;;;8.50;69.46;93703.75;1515778;94;21144;-48
2022/12/09 15:00:12;;;;;;;72.35;41.02;;;;;;;8.49;69.55;93703.60;1600440;88;21081;-48
2022/12/09 18:21:59;;;;;;;118.87;71.45;;;;;;;5.13;92.40;93562.80;1831083;77;26166;-52
2022/12/09 18:24:26;;;;;;;125.58;77.82;;;;;;;5.05;92.18;93554.10;1799727;79;21490;-50
2022/12/09 18:26:53;;;;;;;102.90;61.15;;;;;;;5.06;92.35;93550.76;1773217;78;21210;-51
2022/12/09 18:29:20;;;;;;;116.80;63.87;;;;;;;5.07;92.29;93561.23;1766916;79;21446;-49
2022/12/09 18:31:48;;;;;;;130.95;77.12;;;;;;;5.06;92.42;93554.27;1772745;79;21009;-51
2022/12/09 18:34:15;;;;;;;121.75;77.32;;;;;;;5.08;92.42;93553.22;1791687;78;21121;-50
2022/12/09 18:36:43;;;;;;;123.02;72.37;;;;;;;5.08;92.38;93558.67;1800277;78;21058;-49